Seabourn Odyssey — C6XC6 — position and weather

sailwx.info

Track history (hours):
 
Tides and Currents Weather Stations Pressure Air Temp Water Temp Dewpoint Dewpoint Depression Visibility Wind Speed Wind Dir Waves Ship Positions

Seabourn Odyssey

Last reported at 2017-Jul-22 18:30 UTC. Time now 2017-Jul-22 18:35 UTC.
Position N 44°00' E 009°25'.

Length 198 m; draft 6.7 m.

Type: Ship. MMSI: 309416000.

Date/timePositionNaut miles runAvg speedWind from/ knotsBaromVisibWave heightAir tempDewpointWater temp
2017-Jul-22 18:30N 44°00' E 009°25'3 6.7
2017-Jul-22 18:01N 44°03' E 009°23'3 6.8
2017-Jul-22 17:30N 44°06' E 009°21'3 6.7
2017-Jul-22 17:00N 44°09' E 009°19'3 6.7
2017-Jul-22 16:30N 44°13' E 009°18'4 7.6
2017-Jul-22 16:01N 44°16' E 009°16'3 5.8
2017-Jul-22 15:31N 44°19' E 009°14'0 0.1
2017-Jul-22 14:58N 44°19' E 009°14'0 0.0
2017-Jul-22 13:58N 44°19' E 009°14'0 0.0
2017-Jul-22 13:25N 44°19' E 009°14'0 0.0
2017-Jul-22 12:55N 44°19' E 009°14'0 0.0
2017-Jul-22 12:28N 44°19' E 009°14'0 0.0
2017-Jul-22 11:58N 44°19' E 009°14'0 0.0
2017-Jul-22 11:28N 44°19' E 009°14'0 0.0
2017-Jul-22 10:58N 44°19' E 009°14'0 0.0
2017-Jul-22 10:28N 44°19' E 009°14'0 0.0
2017-Jul-22 09:52N 44°19' E 009°14'0 0.0
2017-Jul-22 09:19N 44°19' E 009°14'0 0.0
2017-Jul-22 08:55N 44°19' E 009°14'0 0.0
2017-Jul-22 08:25N 44°19' E 009°14'0 0.0
2017-Jul-22 07:58N 44°19' E 009°14'0 0.0
2017-Jul-22 07:25N 44°19' E 009°14'0 0.0
2017-Jul-22 06:58N 44°19' E 009°14'0 0.0
2017-Jul-22 06:28N 44°19' E 009°14'0 0.0
2017-Jul-22 05:52N 44°19' E 009°14'3 2.1
2017-Jul-22 04:17N 44°16' E 009°17'1 4.8
2017-Jul-22 04:01N 44°15' E 009°18'2 4.7
2017-Jul-22 03:31N 44°13' E 009°17'2 4.9
2017-Jul-22 03:01N 44°11' E 009°15'3 5.1
2017-Jul-22 02:31N 44°09' E 009°13'3 5.1
2017-Jul-22 02:01N 44°07' E 009°10'3 5.1
2017-Jul-22 01:31N 44°05' E 009°08'3 5.7
2017-Jul-22 01:01N 44°03' E 009°05'3 6.7
2017-Jul-22 00:31N 44°01' E 009°02'4 7.1
2017-Jul-22 00:01N 43°58' E 008°59'3 6.9
2017-Jul-21 23:30N 43°55' E 008°57'3 6.8
2017-Jul-21 23:01N 43°53' E 008°53'3 6.8
2017-Jul-21 22:31N 43°52' E 008°49'3 6.8
2017-Jul-21 22:00N 43°50' E 008°44'3 6.9
2017-Jul-21 21:30N 43°49' E 008°40'3 7.0
2017-Jul-21 21:01N 43°47' E 008°36'4 6.9
2017-Jul-21 20:30N 43°46' E 008°31'3 6.7
2017-Jul-21 20:00N 43°44' E 008°27'4 6.8
2017-Jul-21 19:29N 43°42' E 008°23'5 6.8
2017-Jul-21 18:41N 43°40' E 008°16'22 1.6
2017-Jul-21 04:56N 43°48' E 007°47'1411.0
2017-Jul-21 03:41N 43°41' E 008°04'4 8.4
2017-Jul-21 03:14N 43°38' E 008°07'2 7.8
2017-Jul-21 02:57N 43°36' E 008°08'9 6.8
2017-Jul-21 01:37N 43°28' E 008°01'1 7.2
2017-Jul-21 01:27N 43°28' E 007°60'3 7.4
2017-Jul-21 01:00N 43°28' E 007°55'4 7.3
2017-Jul-21 00:30N 43°28' E 007°50'4 7.2
2017-Jul-21 00:00N 43°28' E 007°45'4 7.1
2017-Jul-20 23:30N 43°28' E 007°41'4 8.1
2017-Jul-20 23:00N 43°32' E 007°37'4 8.1
2017-Jul-20 22:30N 43°35' E 007°34'5 8.2
2017-Jul-20 21:55N 43°39' E 007°31'4 8.9
2017-Jul-20 21:30N 43°42' E 007°28'3 0.8
2017-Jul-20 18:28N 43°44' E 007°26'6 0.4
2017-Jul-20 04:09N 43°39' E 007°24'1 7.0
2017-Jul-20 04:00N 43°38' E 007°23'3 7.0
2017-Jul-20 03:31N 43°35' E 007°20'4 7.1
2017-Jul-20 03:00N 43°32' E 007°17'3 7.0
2017-Jul-20 02:31N 43°30' E 007°13'3 6.8
2017-Jul-20 02:01N 43°27' E 007°10'4 7.0
2017-Jul-20 01:30N 43°25' E 007°07'4 7.4
2017-Jul-20 01:01N 43°22' E 007°04'4 7.2
2017-Jul-20 00:30N 43°19' E 007°01'4 7.2
2017-Jul-20 00:00N 43°16' E 006°58'4 7.4
2017-Jul-19 23:30N 43°13' E 006°55'14 7.4
2017-Jul-19 21:37N 43°02' E 006°43'1 7.4
2017-Jul-19 21:30N 43°02' E 006°42'4 7.2
2017-Jul-19 21:00N 42°59' E 006°39'3 7.1
2017-Jul-19 20:30N 42°56' E 006°37'3 6.7
2017-Jul-19 20:00N 42°54' E 006°33'4 7.1
2017-Jul-19 19:30N 42°54' E 006°28'3 6.9
2017-Jul-19 19:01N 42°53' E 006°23'4 7.7
2017-Jul-19 18:30N 42°53' E 006°18'610.4
2017-Jul-19 17:57N 42°53' E 006°10'611.6
2017-Jul-19 17:26N 42°54' E 006°02'811.2
2017-Jul-19 16:46N 42°57' E 005°52'311.2
2017-Jul-19 16:30N 42°57' E 005°49'510.9
2017-Jul-19 16:00N 43°01' E 005°43'510.4
2017-Jul-19 15:30N 43°06' E 005°46'2 2.8
2017-Jul-19 14:56N 43°06' E 005°48'0 0.0
2017-Jul-19 14:30N 43°06' E 005°48'0 0.0
2017-Jul-19 14:00N 43°06' E 005°48'0 0.1
2017-Jul-19 13:30N 43°06' E 005°48'0 0.0
2017-Jul-19 12:41N 43°06' E 005°48'0 0.0
2017-Jul-19 09:04N 43°06' E 005°48'0 0.0
2017-Jul-19 08:01N 43°06' E 005°48'0 0.0
2017-Jul-19 05:23N 43°06' E 005°48'1 1.8
2017-Jul-19 05:00N 43°06' E 005°47'611.6
2017-Jul-19 04:30N 43°05' E 005°39'714.1
2017-Jul-19 04:00N 43°02' E 005°30'713.8
2017-Jul-19 03:30N 43°00' E 005°21'713.7
2017-Jul-19 03:00N 42°59' E 005°12'713.2
2017-Jul-19 02:30N 42°59' E 005°03'713.8
2017-Jul-19 02:00N 43°02' E 004°54'713.6
2017-Jul-19 01:30N 43°04' E 004°45'713.5
2017-Jul-19 01:00N 43°06' E 004°37'713.8
2017-Jul-19 00:30N 43°08' E 004°28'713.8
2017-Jul-19 00:00N 43°10' E 004°19'713.6
2017-Jul-18 23:30N 43°13' E 004°10'813.7
2017-Jul-18 22:57N 43°15' E 003°60'613.5
2017-Jul-18 22:30N 43°17' E 003°52'612.5
2017-Jul-18 22:00N 43°22' E 003°47'4 7.3
2017-Jul-18 21:31N 43°24' E 003°42'0 0.8
2017-Jul-18 21:00N 43°24' E 003°42'0 0.0
2017-Jul-18 20:28N 43°24' E 003°42'0 0.0
2017-Jul-18 19:58N 43°24' E 003°42'0 0.0
2017-Jul-18 19:28N 43°24' E 003°42'0 0.0
2017-Jul-18 19:00N 43°24' E 003°42'0 0.0
2017-Jul-18 18:30N 43°24' E 003°42'0 0.0
2017-Jul-18 18:00N 43°24' E 003°42'0 0.0
2017-Jul-18 17:29N 43°24' E 003°42'0 0.0
2017-Jul-18 16:59N 43°24' E 003°42'0 0.0
2017-Jul-18 16:29N 43°24' E 003°42'0 0.0
2017-Jul-18 15:59N 43°24' E 003°42'0 0.0
2017-Jul-18 15:29N 43°24' E 003°42'0 0.0
2017-Jul-18 14:59N 43°24' E 003°42'0 0.0
2017-Jul-18 13:50N 43°24' E 003°42'0 0.0
2017-Jul-18 13:29N 43°24' E 003°42'0 0.0
2017-Jul-18 12:59N 43°24' E 003°42'0 0.0
2017-Jul-18 11:02N 43°24' E 003°42'3 0.5
2017-Jul-18 05:05N 43°23' E 003°46'1 7.4
2017-Jul-18 05:00N 43°23' E 003°46'6 7.4
2017-Jul-18 04:15N 43°18' E 003°51'7 6.2
2017-Jul-18 03:06N 43°12' E 003°54'2 6.7
2017-Jul-18 02:50N 43°10' E 003°54'12 6.7
2017-Jul-18 01:06N 42°58' E 003°53'2 6.7
2017-Jul-18 00:50N 42°57' E 003°54'26 7.0
2017-Jul-17 21:07N 42°31' E 003°48'2 7.4
2017-Jul-17 20:51N 42°29' E 003°48'13 7.4
2017-Jul-17 19:07N 42°16' E 003°46'2 7.1
2017-Jul-17 18:51N 42°14' E 003°46'4 9.8
2017-Jul-17 18:28N 42°11' E 003°43'611.2
2017-Jul-17 17:58N 42°11' E 003°36'510.8
2017-Jul-17 17:29N 42°11' E 003°28'510.3
2017-Jul-17 17:00N 42°11' E 003°22'7 0.5
2017-Jul-17 03:10N 42°05' E 003°19'2 6.9
2017-Jul-17 02:54N 42°03' E 003°20'12 7.2
2017-Jul-17 01:10N 41°51' E 003°26'2 7.8
2017-Jul-17 00:55N 41°49' E 003°26'12 6.9
2017-Jul-16 23:10N 41°38' E 003°21'2 7.9
2017-Jul-16 22:58N 41°37' E 003°19'8 8.1
2017-Jul-16 22:00N 41°32' E 003°11'7 8.0
2017-Jul-16 21:11N 41°28' E 003°05'3 7.8
2017-Jul-16 20:50N 41°26' E 003°02'4 7.9
2017-Jul-16 20:22N 41°24' E 002°57'3 7.4
2017-Jul-16 19:55N 41°22' E 002°54'3 7.2
2017-Jul-16 19:27N 41°19' E 002°52'3 7.2
2017-Jul-16 19:00N 41°19' E 002°47'3 7.0
2017-Jul-16 18:30N 41°19' E 002°43'510.1
2017-Jul-16 18:00N 41°18' E 002°36'611.6
2017-Jul-16 17:30N 41°18' E 002°28'611.2
2017-Jul-16 17:00N 41°17' E 002°21'510.3
2017-Jul-16 16:30N 41°19' E 002°14'4 8.0
2017-Jul-16 16:00N 41°22' E 002°11'0 0.0
2017-Jul-16 03:40N 41°22' E 002°11'0 0.6
2017-Jul-16 03:24N 41°22' E 002°11'1 3.2
2017-Jul-16 02:56N 41°21' E 002°12'3 6.8
2017-Jul-16 02:30N 41°20' E 002°16'6 7.6
2017-Jul-16 01:45N 41°23' E 002°23'8 7.4
2017-Jul-16 00:39N 41°27' E 002°32'1 7.5
2017-Jul-16 00:30N 41°27' E 002°33'4 7.4
2017-Jul-16 00:00N 41°29' E 002°38'4 7.5
2017-Jul-15 23:29N 41°30' E 002°43'5 7.3
2017-Jul-15 22:47N 41°33' E 002°49'2 7.3
2017-Jul-15 22:30N 41°34' E 002°51'4 7.5
2017-Jul-15 21:58N 41°36' E 002°55'4 7.6
2017-Jul-15 21:30N 41°38' E 002°59'713.8
2017-Jul-15 20:59N 41°42' E 003°07'2413.8
2017-Jul-15 19:15N 41°58' E 003°31'414.9
2017-Jul-15 18:59N 42°01' E 003°35'1414.8
2017-Jul-15 18:04N 42°10' E 003°49'4214.9
2017-Jul-15 15:16N 42°39' E 004°29'414.4
2017-Jul-15 15:00N 42°41' E 004°33'2014.1
2017-Jul-15 13:34N 42°56' E 004°53'113.9
2017-Jul-15 13:30N 42°56' E 004°54'714.0
2017-Jul-15 13:01N 43°01' E 005°00'8811.1
2017-Jul-15 05:06N 43°09' E 007°00'112.1
2017-Jul-15 05:00N 43°10' E 007°01'612.0
2017-Jul-15 04:30N 43°12' E 007°09'712.1
2017-Jul-15 03:58N 43°15' E 007°17'612.0
2017-Jul-15 03:28N 43°18' E 007°25'611.8
2017-Jul-15 02:58N 43°20' E 007°32'511.7
2017-Jul-15 02:30N 43°22' E 007°39'611.8
2017-Jul-15 01:58N 43°25' E 007°47'1411.8
2017-Jul-15 00:45N 43°30' E 008°05'2312.4
2017-Jul-14 22:54N 43°38' E 008°35'712.1
2017-Jul-14 22:17N 43°42' E 008°44'311.9
2017-Jul-14 22:00N 43°43' E 008°48'612.2
2017-Jul-14 21:30N 43°44' E 008°56'612.1
2017-Jul-14 21:00N 43°46' E 009°04'612.1
2017-Jul-14 20:30N 43°48' E 009°12'612.1
2017-Jul-14 20:00N 43°50' E 009°20'612.2
2017-Jul-14 19:30N 43°53' E 009°28'612.0
2017-Jul-14 19:00N 43°55' E 009°35'612.4
2017-Jul-14 18:30N 43°57' E 009°43'612.4
2017-Jul-14 18:00N 43°59' E 009°51'611.3
2017-Jul-14 17:30N 44°05' E 009°51'2 3.3
2017-Jul-14 17:00N 44°07' E 009°50'0 0.0
2017-Jul-14 16:30N 44°07' E 009°50'0 0.0
2017-Jul-14 16:00N 44°07' E 009°50'0 0.0
2017-Jul-14 15:30N 44°07' E 009°50'0 0.0
2017-Jul-14 15:00N 44°07' E 009°50'0 0.0
2017-Jul-14 14:22N 44°07' E 009°50'0 0.0
2017-Jul-14 13:58N 44°07' E 009°50'0 0.0
2017-Jul-14 13:28N 44°07' E 009°50'0 0.0
2017-Jul-14 12:58N 44°07' E 009°50'0 0.0
2017-Jul-14 12:28N 44°07' E 009°50'0 0.0
2017-Jul-14 11:58N 44°07' E 009°50'0 0.0
2017-Jul-14 11:28N 44°07' E 009°50'0 0.0
2017-Jul-14 10:58N 44°07' E 009°50'0 0.0
2017-Jul-14 10:22N 44°07' E 009°50'0 0.0
2017-Jul-14 09:58N 44°07' E 009°50'0 0.0
2017-Jul-14 09:28N 44°07' E 009°50'0 0.0
2017-Jul-14 08:58N 44°07' E 009°50'0 0.0
2017-Jul-14 08:31N 44°07' E 009°50'0 0.0
2017-Jul-14 08:01N 44°07' E 009°50'0 0.0
2017-Jul-14 07:31N 44°07' E 009°50'0 0.0
2017-Jul-14 07:01N 44°07' E 009°50'0 0.0
2017-Jul-14 06:28N 44°07' E 009°50'0 0.0
2017-Jul-14 06:01N 44°07' E 009°50'0 0.4
2017-Jul-14 05:30N 44°06' E 009°50'3 6.7
2017-Jul-14 05:01N 44°03' E 009°52'510.6
2017-Jul-14 04:31N 43°60' E 009°58'611.4
2017-Jul-14 03:59N 43°54' E 009°57'713.8
2017-Jul-14 03:30N 43°48' E 009°54'713.5
2017-Jul-14 03:00N 43°41' E 009°51'713.3
2017-Jul-14 02:30N 43°35' E 009°48'713.2
2017-Jul-14 02:00N 43°29' E 009°44'713.1
2017-Jul-14 01:30N 43°23' E 009°41'2312.7
2017-Jul-13 23:40N 42°60' E 009°40'4013.7
2017-Jul-13 20:44N 42°20' E 009°54'312.7
2017-Jul-13 20:30N 42°17' E 009°55'713.0
2017-Jul-13 19:58N 42°13' E 010°01'1013.5
2017-Jul-13 19:14N 42°06' E 010°11'313.5
2017-Jul-13 19:00N 42°04' E 010°14'30113.4
2017-Jul-12 20:30N 38°44' E 015°10'713.3
2017-Jul-12 19:59N 38°38' E 015°14'613.2
2017-Jul-12 19:30N 38°34' E 015°20'713.4
2017-Jul-12 19:00N 38°29' E 015°27'  
Track history (hours):
 
Tides and Currents Weather Stations Pressure Air Temp Water Temp Dewpoint Dewpoint Depression Visibility Wind Speed Wind Dir Waves Ship Positions

Seabourn Odyssey

Last reported at 2017-Jul-22 18:30 UTC. Time now 2017-Jul-22 18:35 UTC.
Position N 44°00' E 009°25'.

Length 198 m; draft 6.7 m.

Type: Ship. MMSI: 309416000.

Date/timePositionNaut miles runAvg speedWind from/ knotsBaromVisibWave heightAir tempDewpointWater temp
2017-Jul-22 18:30N 44°00' E 009°25'3 6.7
2017-Jul-22 18:01N 44°03' E 009°23'3 6.8
2017-Jul-22 17:30N 44°06' E 009°21'3 6.7
2017-Jul-22 17:00N 44°09' E 009°19'3 6.7
2017-Jul-22 16:30N 44°13' E 009°18'4 7.6
2017-Jul-22 16:01N 44°16' E 009°16'3 5.8
2017-Jul-22 15:31N 44°19' E 009°14'0 0.1
2017-Jul-22 14:58N 44°19' E 009°14'0 0.0
2017-Jul-22 13:58N 44°19' E 009°14'0 0.0
2017-Jul-22 13:25N 44°19' E 009°14'0 0.0
2017-Jul-22 12:55N 44°19' E 009°14'0 0.0
2017-Jul-22 12:28N 44°19' E 009°14'0 0.0
2017-Jul-22 11:58N 44°19' E 009°14'0 0.0
2017-Jul-22 11:28N 44°19' E 009°14'0 0.0
2017-Jul-22 10:58N 44°19' E 009°14'0 0.0
2017-Jul-22 10:28N 44°19' E 009°14'0 0.0
2017-Jul-22 09:52N 44°19' E 009°14'0 0.0
2017-Jul-22 09:19N 44°19' E 009°14'0 0.0
2017-Jul-22 08:55N 44°19' E 009°14'0 0.0
2017-Jul-22 08:25N 44°19' E 009°14'0 0.0
2017-Jul-22 07:58N 44°19' E 009°14'0 0.0
2017-Jul-22 07:25N 44°19' E 009°14'0 0.0
2017-Jul-22 06:58N 44°19' E 009°14'0 0.0
2017-Jul-22 06:28N 44°19' E 009°14'0 0.0
2017-Jul-22 05:52N 44°19' E 009°14'3 2.1
2017-Jul-22 04:17N 44°16' E 009°17'1 4.8
2017-Jul-22 04:01N 44°15' E 009°18'2 4.7
2017-Jul-22 03:31N 44°13' E 009°17'2 4.9
2017-Jul-22 03:01N 44°11' E 009°15'3 5.1
2017-Jul-22 02:31N 44°09' E 009°13'3 5.1
2017-Jul-22 02:01N 44°07' E 009°10'3 5.1
2017-Jul-22 01:31N 44°05' E 009°08'3 5.7
2017-Jul-22 01:01N 44°03' E 009°05'3 6.7
2017-Jul-22 00:31N 44°01' E 009°02'4 7.1
2017-Jul-22 00:01N 43°58' E 008°59'3 6.9
2017-Jul-21 23:30N 43°55' E 008°57'3 6.8
2017-Jul-21 23:01N 43°53' E 008°53'3 6.8
2017-Jul-21 22:31N 43°52' E 008°49'3 6.8
2017-Jul-21 22:00N 43°50' E 008°44'3 6.9
2017-Jul-21 21:30N 43°49' E 008°40'3 7.0
2017-Jul-21 21:01N 43°47' E 008°36'4 6.9
2017-Jul-21 20:30N 43°46' E 008°31'3 6.7
2017-Jul-21 20:00N 43°44' E 008°27'4 6.8
2017-Jul-21 19:29N 43°42' E 008°23'5 6.8
2017-Jul-21 18:41N 43°40' E 008°16'22 1.6
2017-Jul-21 04:56N 43°48' E 007°47'1411.0
2017-Jul-21 03:41N 43°41' E 008°04'4 8.4
2017-Jul-21 03:14N 43°38' E 008°07'2 7.8
2017-Jul-21 02:57N 43°36' E 008°08'9 6.8
2017-Jul-21 01:37N 43°28' E 008°01'1 7.2
2017-Jul-21 01:27N 43°28' E 007°60'3 7.4
2017-Jul-21 01:00N 43°28' E 007°55'4 7.3
2017-Jul-21 00:30N 43°28' E 007°50'4 7.2
2017-Jul-21 00:00N 43°28' E 007°45'4 7.1
2017-Jul-20 23:30N 43°28' E 007°41'4 8.1
2017-Jul-20 23:00N 43°32' E 007°37'4 8.1
2017-Jul-20 22:30N 43°35' E 007°34'5 8.2
2017-Jul-20 21:55N 43°39' E 007°31'4 8.9
2017-Jul-20 21:30N 43°42' E 007°28'3 0.8
2017-Jul-20 18:28N 43°44' E 007°26'6 0.4
2017-Jul-20 04:09N 43°39' E 007°24'1 7.0
2017-Jul-20 04:00N 43°38' E 007°23'3 7.0
2017-Jul-20 03:31N 43°35' E 007°20'4 7.1
2017-Jul-20 03:00N 43°32' E 007°17'3 7.0
2017-Jul-20 02:31N 43°30' E 007°13'3 6.8
2017-Jul-20 02:01N 43°27' E 007°10'4 7.0
2017-Jul-20 01:30N 43°25' E 007°07'4 7.4
2017-Jul-20 01:01N 43°22' E 007°04'4 7.2
2017-Jul-20 00:30N 43°19' E 007°01'4 7.2
2017-Jul-20 00:00N 43°16' E 006°58'4 7.4
2017-Jul-19 23:30N 43°13' E 006°55'14 7.4
2017-Jul-19 21:37N 43°02' E 006°43'1 7.4
2017-Jul-19 21:30N 43°02' E 006°42'4 7.2
2017-Jul-19 21:00N 42°59' E 006°39'3 7.1
2017-Jul-19 20:30N 42°56' E 006°37'3 6.7
2017-Jul-19 20:00N 42°54' E 006°33'4 7.1
2017-Jul-19 19:30N 42°54' E 006°28'3 6.9
2017-Jul-19 19:01N 42°53' E 006°23'4 7.7
2017-Jul-19 18:30N 42°53' E 006°18'610.4
2017-Jul-19 17:57N 42°53' E 006°10'611.6
2017-Jul-19 17:26N 42°54' E 006°02'811.2
2017-Jul-19 16:46N 42°57' E 005°52'311.2
2017-Jul-19 16:30N 42°57' E 005°49'510.9
2017-Jul-19 16:00N 43°01' E 005°43'510.4
2017-Jul-19 15:30N 43°06' E 005°46'2 2.8
2017-Jul-19 14:56N 43°06' E 005°48'0 0.0
2017-Jul-19 14:30N 43°06' E 005°48'0 0.0
2017-Jul-19 14:00N 43°06' E 005°48'0 0.1
2017-Jul-19 13:30N 43°06' E 005°48'0 0.0
2017-Jul-19 12:41N 43°06' E 005°48'0 0.0
2017-Jul-19 09:04N 43°06' E 005°48'0 0.0
2017-Jul-19 08:01N 43°06' E 005°48'0 0.0
2017-Jul-19 05:23N 43°06' E 005°48'1 1.8
2017-Jul-19 05:00N 43°06' E 005°47'611.6
2017-Jul-19 04:30N 43°05' E 005°39'714.1
2017-Jul-19 04:00N 43°02' E 005°30'713.8
2017-Jul-19 03:30N 43°00' E 005°21'713.7
2017-Jul-19 03:00N 42°59' E 005°12'713.2
2017-Jul-19 02:30N 42°59' E 005°03'713.8
2017-Jul-19 02:00N 43°02' E 004°54'713.6
2017-Jul-19 01:30N 43°04' E 004°45'713.5
2017-Jul-19 01:00N 43°06' E 004°37'713.8
2017-Jul-19 00:30N 43°08' E 004°28'713.8
2017-Jul-19 00:00N 43°10' E 004°19'713.6
2017-Jul-18 23:30N 43°13' E 004°10'813.7
2017-Jul-18 22:57N 43°15' E 003°60'613.5
2017-Jul-18 22:30N 43°17' E 003°52'612.5
2017-Jul-18 22:00N 43°22' E 003°47'4 7.3
2017-Jul-18 21:31N 43°24' E 003°42'0 0.8
2017-Jul-18 21:00N 43°24' E 003°42'0 0.0
2017-Jul-18 20:28N 43°24' E 003°42'0 0.0
2017-Jul-18 19:58N 43°24' E 003°42'0 0.0
2017-Jul-18 19:28N 43°24' E 003°42'0 0.0
2017-Jul-18 19:00N 43°24' E 003°42'0 0.0
2017-Jul-18 18:30N 43°24' E 003°42'0 0.0
2017-Jul-18 18:00N 43°24' E 003°42'0 0.0
2017-Jul-18 17:29N 43°24' E 003°42'0 0.0
2017-Jul-18 16:59N 43°24' E 003°42'0 0.0
2017-Jul-18 16:29N 43°24' E 003°42'0 0.0
2017-Jul-18 15:59N 43°24' E 003°42'0 0.0
2017-Jul-18 15:29N 43°24' E 003°42'0 0.0
2017-Jul-18 14:59N 43°24' E 003°42'0 0.0
2017-Jul-18 13:50N 43°24' E 003°42'0 0.0
2017-Jul-18 13:29N 43°24' E 003°42'0 0.0
2017-Jul-18 12:59N 43°24' E 003°42'0 0.0
2017-Jul-18 11:02N 43°24' E 003°42'3 0.5
2017-Jul-18 05:05N 43°23' E 003°46'1 7.4
2017-Jul-18 05:00N 43°23' E 003°46'6 7.4
2017-Jul-18 04:15N 43°18' E 003°51'7 6.2
2017-Jul-18 03:06N 43°12' E 003°54'2 6.7
2017-Jul-18 02:50N 43°10' E 003°54'12 6.7
2017-Jul-18 01:06N 42°58' E 003°53'2 6.7
2017-Jul-18 00:50N 42°57' E 003°54'26 7.0
2017-Jul-17 21:07N 42°31' E 003°48'2 7.4
2017-Jul-17 20:51N 42°29' E 003°48'13 7.4
2017-Jul-17 19:07N 42°16' E 003°46'2 7.1
2017-Jul-17 18:51N 42°14' E 003°46'4 9.8
2017-Jul-17 18:28N 42°11' E 003°43'611.2
2017-Jul-17 17:58N 42°11' E 003°36'510.8
2017-Jul-17 17:29N 42°11' E 003°28'510.3
2017-Jul-17 17:00N 42°11' E 003°22'7 0.5
2017-Jul-17 03:10N 42°05' E 003°19'2 6.9
2017-Jul-17 02:54N 42°03' E 003°20'12 7.2
2017-Jul-17 01:10N 41°51' E 003°26'2 7.8
2017-Jul-17 00:55N 41°49' E 003°26'12 6.9
2017-Jul-16 23:10N 41°38' E 003°21'2 7.9
2017-Jul-16 22:58N 41°37' E 003°19'8 8.1
2017-Jul-16 22:00N 41°32' E 003°11'7 8.0
2017-Jul-16 21:11N 41°28' E 003°05'3 7.8
2017-Jul-16 20:50N 41°26' E 003°02'4 7.9
2017-Jul-16 20:22N 41°24' E 002°57'3 7.4
2017-Jul-16 19:55N 41°22' E 002°54'3 7.2
2017-Jul-16 19:27N 41°19' E 002°52'3 7.2
2017-Jul-16 19:00N 41°19' E 002°47'3 7.0
2017-Jul-16 18:30N 41°19' E 002°43'510.1
2017-Jul-16 18:00N 41°18' E 002°36'611.6
2017-Jul-16 17:30N 41°18' E 002°28'611.2
2017-Jul-16 17:00N 41°17' E 002°21'510.3
2017-Jul-16 16:30N 41°19' E 002°14'4 8.0
2017-Jul-16 16:00N 41°22' E 002°11'0 0.0
2017-Jul-16 03:40N 41°22' E 002°11'0 0.6
2017-Jul-16 03:24N 41°22' E 002°11'1 3.2
2017-Jul-16 02:56N 41°21' E 002°12'3 6.8
2017-Jul-16 02:30N 41°20' E 002°16'6 7.6
2017-Jul-16 01:45N 41°23' E 002°23'8 7.4
2017-Jul-16 00:39N 41°27' E 002°32'1 7.5
2017-Jul-16 00:30N 41°27' E 002°33'4 7.4
2017-Jul-16 00:00N 41°29' E 002°38'4 7.5
2017-Jul-15 23:29N 41°30' E 002°43'5 7.3
2017-Jul-15 22:47N 41°33' E 002°49'2 7.3
2017-Jul-15 22:30N 41°34' E 002°51'4 7.5
2017-Jul-15 21:58N 41°36' E 002°55'4 7.6
2017-Jul-15 21:30N 41°38' E 002°59'713.8
2017-Jul-15 20:59N 41°42' E 003°07'2413.8
2017-Jul-15 19:15N 41°58' E 003°31'414.9
2017-Jul-15 18:59N 42°01' E 003°35'1414.8
2017-Jul-15 18:04N 42°10' E 003°49'4214.9
2017-Jul-15 15:16N 42°39' E 004°29'414.4
2017-Jul-15 15:00N 42°41' E 004°33'2014.1
2017-Jul-15 13:34N 42°56' E 004°53'113.9
2017-Jul-15 13:30N 42°56' E 004°54'714.0
2017-Jul-15 13:01N 43°01' E 005°00'8811.1
2017-Jul-15 05:06N 43°09' E 007°00'112.1
2017-Jul-15 05:00N 43°10' E 007°01'612.0
2017-Jul-15 04:30N 43°12' E 007°09'712.1
2017-Jul-15 03:58N 43°15' E 007°17'612.0
2017-Jul-15 03:28N 43°18' E 007°25'611.8
2017-Jul-15 02:58N 43°20' E 007°32'511.7
2017-Jul-15 02:30N 43°22' E 007°39'611.8
2017-Jul-15 01:58N 43°25' E 007°47'1411.8
2017-Jul-15 00:45N 43°30' E 008°05'2312.4
2017-Jul-14 22:54N 43°38' E 008°35'712.1
2017-Jul-14 22:17N 43°42' E 008°44'311.9
2017-Jul-14 22:00N 43°43' E 008°48'612.2
2017-Jul-14 21:30N 43°44' E 008°56'612.1
2017-Jul-14 21:00N 43°46' E 009°04'612.1
2017-Jul-14 20:30N 43°48' E 009°12'612.1
2017-Jul-14 20:00N 43°50' E 009°20'612.2
2017-Jul-14 19:30N 43°53' E 009°28'612.0
2017-Jul-14 19:00N 43°55' E 009°35'612.4
2017-Jul-14 18:30N 43°57' E 009°43'612.4
2017-Jul-14 18:00N 43°59' E 009°51'611.3
2017-Jul-14 17:30N 44°05' E 009°51'2 3.3
2017-Jul-14 17:00N 44°07' E 009°50'0 0.0
2017-Jul-14 16:30N 44°07' E 009°50'0 0.0
2017-Jul-14 16:00N 44°07' E 009°50'0 0.0
2017-Jul-14 15:30N 44°07' E 009°50'0 0.0
2017-Jul-14 15:00N 44°07' E 009°50'0 0.0
2017-Jul-14 14:22N 44°07' E 009°50'0 0.0
2017-Jul-14 13:58N 44°07' E 009°50'0 0.0
2017-Jul-14 13:28N 44°07' E 009°50'0 0.0
2017-Jul-14 12:58N 44°07' E 009°50'0 0.0
2017-Jul-14 12:28N 44°07' E 009°50'0 0.0
2017-Jul-14 11:58N 44°07' E 009°50'0 0.0
2017-Jul-14 11:28N 44°07' E 009°50'0 0.0
2017-Jul-14 10:58N 44°07' E 009°50'0 0.0
2017-Jul-14 10:22N 44°07' E 009°50'0 0.0
2017-Jul-14 09:58N 44°07' E 009°50'0 0.0
2017-Jul-14 09:28N 44°07' E 009°50'0 0.0
2017-Jul-14 08:58N 44°07' E 009°50'0 0.0
2017-Jul-14 08:31N 44°07' E 009°50'0 0.0
2017-Jul-14 08:01N 44°07' E 009°50'0 0.0
2017-Jul-14 07:31N 44°07' E 009°50'0 0.0
2017-Jul-14 07:01N 44°07' E 009°50'0 0.0
2017-Jul-14 06:28N 44°07' E 009°50'0 0.0
2017-Jul-14 06:01N 44°07' E 009°50'0 0.4
2017-Jul-14 05:30N 44°06' E 009°50'3 6.7
2017-Jul-14 05:01N 44°03' E 009°52'510.6
2017-Jul-14 04:31N 43°60' E 009°58'611.4
2017-Jul-14 03:59N 43°54' E 009°57'713.8
2017-Jul-14 03:30N 43°48' E 009°54'713.5
2017-Jul-14 03:00N 43°41' E 009°51'713.3
2017-Jul-14 02:30N 43°35' E 009°48'713.2
2017-Jul-14 02:00N 43°29' E 009°44'713.1
2017-Jul-14 01:30N 43°23' E 009°41'2312.7
2017-Jul-13 23:40N 42°60' E 009°40'4013.7
2017-Jul-13 20:44N 42°20' E 009°54'312.7
2017-Jul-13 20:30N 42°17' E 009°55'713.0
2017-Jul-13 19:58N 42°13' E 010°01'1013.5
2017-Jul-13 19:14N 42°06' E 010°11'313.5
2017-Jul-13 19:00N 42°04' E 010°14'30113.4
2017-Jul-12 20:30N 38°44' E 015°10'713.3
2017-Jul-12 19:59N 38°38' E 015°14'613.2
2017-Jul-12 19:30N 38°34' E 015°20'713.4
2017-Jul-12 19:00N 38°29' E 015°27'  

Dump ship's entire track history